Wednesday, November 22, 2017, 9:03 AM GMT
Back to Local

CWIS, Charlevoix CS , Que.

Location: , , Canada Lat: 47.283
Local Time: 9:03 AM GMT ( 9:03 GMT) Lon: -70.633
Time Zone: GMT Elev: 2358 ft

Show me the last for .
Show Decoded

2017-11-22 08:00 METAR CWIS 220800Z AUTO 23005KT M00/M00 RMK AO1 SOG 07 2008 SLP103 T10011002 =
2017-11-22 07:00 METAR CWIS 220700Z AUTO 23005KT M00/M02 RMK AO1 SOG 07 2010 SLP101 T10021015 =
2017-11-22 06:00 METAR CWIS 220600Z AUTO 24006KT 01/M02 RMK AO1 SOG 07 1010 SLP096 T00051019 =
2017-11-22 05:00 METAR CWIS 220500Z AUTO 22006KT M01/M03 RMK AO1 SOG 07 3008 SLP096 T10081029 =
2017-11-22 04:00 METAR CWIS 220400Z AUTO 22006KT M00/M03 RMK AO1 SOG 07 3006 SLP094 T10041028 =
2017-11-22 03:00 METAR CWIS 220300Z AUTO 22007KT M00/M03 RMK AO1 SOG 07 1002 SLP090 T10011028 =
2017-11-22 02:00 METAR CWIS 220200Z AUTO 22006KT M01/M03 RMK AO1 SOG 07 1006 SLP092 T10081029 =
2017-11-22 01:00 METAR CWIS 220100Z AUTO 20005KT M02/M03 RMK AO1 SOG 07 1008 SLP092 T10181029 =
2017-11-22 00:00 METAR CWIS 220000Z AUTO 20005KT M02/M03 RMK AO1 SOG 07 3011 SLP094 T10171028 =
2017-11-21 23:00 METAR CWIS 212300Z AUTO 20005KT M02/M03 RMK AO1 SOG 07 3010 SLP091 T10191030 =
2017-11-21 22:00 METAR CWIS 212200Z AUTO 20005KT M03/M03 RMK AO1 SOG 07 3007 SLP089 T10261033 =
2017-11-21 21:00 METAR CWIS 212100Z AUTO 19006KT M03/M04 RMK AO1 SOG 07 3003 SLP085 T10281035 =
2017-11-21 20:00 METAR CWIS 212000Z AUTO 21006KT M03/M04 RMK AO1 SOG 07 5005 SLP082 T10281038 =
2017-11-21 19:00 METAR CWIS 211900Z AUTO 21008G15KT M03/M04 RMK AO1 SOG 07 6013 SLP080 T10271039
                 =
2017-11-21 16:00 METAR CWIS 211600Z AUTO 20005KT M06/M06 RMK AO1 SOG 07 8015 SLP103 T10631063 =
2017-11-21 14:00 METAR CWIS 211400Z AUTO 20005KT M09/M09 RMK AO1 SOG 07 8006 SLP119 T10881088 =
2017-11-21 13:00 METAR CWIS 211300Z AUTO 21004KT M10/M10 RMK AO1 SOG 07 8005 SLP122 T11001103 =
2017-11-21 12:00 METAR CWIS 211200Z AUTO 21003KT M12/M14 RMK AO1 SOG 07 1005 SLP131 T11231135 =
2017-11-21 11:00 METAR CWIS 211100Z AUTO 22003KT M13/M14 RMK AO1 SOG 07 0010 SLP129 T11331144 =
2017-11-21 10:00 METAR CWIS 211000Z AUTO 15003KT M15/M16 RMK AO1 SOG 07 3009 SLP131 T11461156 =

Support USWX by starting your Amazon purchase here.